Time;durP1;ratioP1;P1;durP2;ratioP2;P2;SDS_P1;SDS_P2;PMS_P1;PMS_P2;Temp;Humidity;BMP_temperature;BMP_pressure;BME280_temperature;BME280_humidity;BME280_pressure;Samples;Min_cycle;Max_cycle;Signal;HPM_P1;HPM_P2
2021/01/31 00:00:36;;;;;;;9.40;7.33;;;4.30;84.20;;;;;;5137469;27;20445;-75
2021/01/31 00:03:05;;;;;;;10.20;7.83;;;4.30;84.60;;;;;;5137485;27;20430;-75
2021/01/31 00:05:31;;;;;;;10.37;7.80;;;4.30;84.90;;;;;;5137113;27;20503;-74
2021/01/31 00:07:58;;;;;;;10.30;8.93;;;4.30;84.80;;;;;;5137453;27;20445;-74
2021/01/31 00:10:28;;;;;;;10.73;8.30;;;4.30;84.30;;;;;;5137339;27;20448;-74
2021/01/31 00:12:54;;;;;;;10.50;8.37;;;4.30;84.60;;;;;;5137009;27;20820;-74
2021/01/31 00:15:22;;;;;;;9.50;7.83;;;4.30;84.80;;;;;;5136573;27;21018;-74
2021/01/31 00:17:48;;;;;;;9.90;8.47;;;4.30;84.80;;;;;;5137135;27;20438;-75
2021/01/31 00:20:17;;;;;;;10.30;8.63;;;4.30;85.00;;;;;;5136780;27;20490;-75
2021/01/31 00:22:43;;;;;;;10.70;8.60;;;4.30;85.10;;;;;;5137052;27;20449;-75
2021/01/31 00:25:12;;;;;;;8.53;7.63;;;4.30;84.80;;;;;;5137014;27;20479;-74
2021/01/31 00:27:38;;;;;;;9.43;8.43;;;4.30;84.70;;;;;;5136826;27;20794;-74
2021/01/31 00:30:13;;;;;;;9.43;8.00;;;4.30;84.80;;;;;;5136985;27;20423;-74
2021/01/31 00:32:39;;;;;;;10.00;8.10;;;4.30;84.90;;;;;;5136607;27;20425;-74
2021/01/31 00:35:07;;;;;;;9.20;8.30;;;4.20;84.90;;;;;;5136780;27;20461;-74
2021/01/31 00:37:33;;;;;;;10.07;8.07;;;4.20;85.00;;;;;;5136786;27;20441;-75
2021/01/31 00:39:59;;;;;;;11.20;8.40;;;4.20;84.50;;;;;;5136737;27;20445;-75
2021/01/31 00:42:26;;;;;;;9.27;7.90;;;4.20;84.80;;;;;;5137059;27;20797;-74
2021/01/31 00:44:53;;;;;;;8.90;8.00;;;4.30;84.90;;;;;;5136696;27;20422;-75
2021/01/31 00:47:21;;;;;;;10.53;8.50;;;4.30;85.10;;;;;;5136487;27;20458;-74
2021/01/31 00:49:49;;;;;;;10.60;7.93;;;4.30;84.90;;;;;;5136541;27;20445;-74
2021/01/31 00:52:15;;;;;;;10.40;8.03;;;4.20;84.50;;;;;;5136523;27;20446;-74
2021/01/31 00:54:42;;;;;;;11.37;8.50;;;4.20;84.50;;;;;;5136398;27;20482;-74
2021/01/31 00:57:08;;;;;;;10.77;8.93;;;4.10;84.60;;;;;;5136362;27;20465;-74
2021/01/31 00:59:40;;;;;;;10.70;8.10;;;4.20;84.90;;;;;;5136702;27;20433;-74
2021/01/31 01:02:10;;;;;;;14.30;8.37;;;4.20;84.80;;;;;;5136398;27;20434;-74
2021/01/31 01:04:36;;;;;;;9.93;8.10;;;4.10;85.10;;;;;;5136046;27;20966;-74
2021/01/31 01:07:02;;;;;;;11.90;8.57;;;4.20;85.30;;;;;;5135863;27;20481;-74
2021/01/31 01:09:28;;;;;;;11.47;8.77;;;4.10;85.20;;;;;;5136144;27;20516;-75
2021/01/31 01:11:55;;;;;;;9.47;8.20;;;4.10;85.40;;;;;;5136197;27;20459;-74
2021/01/31 01:14:21;;;;;;;11.17;8.67;;;4.10;85.60;;;;;;5136472;27;20446;-75
2021/01/31 01:16:48;;;;;;;9.00;7.60;;;4.10;85.50;;;;;;5136026;27;20458;-74
2021/01/31 01:19:14;;;;;;;9.73;8.60;;;4.10;85.40;;;;;;5135960;27;20477;-74
2021/01/31 01:21:41;;;;;;;9.23;7.83;;;4.10;85.50;;;;;;5135968;27;20490;-74
2021/01/31 01:24:07;;;;;;;10.03;7.80;;;4.10;85.30;;;;;;5135918;27;20448;-75
2021/01/31 01:26:33;;;;;;;10.07;7.70;;;4.10;85.40;;;;;;5136039;27;20453;-75
2021/01/31 01:29:00;;;;;;;8.83;7.80;;;4.10;85.30;;;;;;5135889;27;20434;-75
2021/01/31 01:31:27;;;;;;;9.47;7.60;;;4.10;85.30;;;;;;5136007;27;20473;-74
2021/01/31 01:33:54;;;;;;;9.10;7.07;;;4.10;84.90;;;;;;5135653;27;20429;-74
2021/01/31 01:36:20;;;;;;;11.63;9.90;;;4.10;85.10;;;;;;5135521;27;20482;-74
2021/01/31 01:38:46;;;;;;;8.63;7.53;;;4.10;85.30;;;;;;5135500;27;20475;-74
2021/01/31 01:41:13;;;;;;;8.40;7.47;;;4.00;85.20;;;;;;5135695;27;20446;-75
2021/01/31 01:43:40;;;;;;;8.67;7.30;;;4.00;85.20;;;;;;5135478;27;20450;-75
2021/01/31 01:46:28;;;;;;;9.87;8.23;;;4.00;84.90;;;;;;5135367;27;20469;-75
2021/01/31 01:49:01;;;;;;;9.50;7.67;;;4.00;84.80;;;;;;5135458;27;20425;-75
2021/01/31 01:51:31;;;;;;;8.63;7.33;;;4.00;84.60;;;;;;5135372;27;20426;-75
2021/01/31 01:54:00;;;;;;;8.90;7.07;;;4.00;84.70;;;;;;5135292;27;20430;-75
2021/01/31 01:56:32;;;;;;;7.93;7.13;;;4.00;84.60;;;;;;5135085;27;20481;-74
2021/01/31 01:59:00;;;;;;;8.87;7.50;;;4.00;84.30;;;;;;5134889;27;20802;-74
2021/01/31 02:01:27;;;;;;;9.20;8.03;;;4.00;84.30;;;;;;5135181;27;20804;-74
2021/01/31 02:03:58;;;;;;;8.27;6.90;;;4.00;84.20;;;;;;5135067;27;20450;-74
2021/01/31 02:06:26;;;;;;;9.93;8.13;;;4.00;84.00;;;;;;5134731;27;20477;-74
2021/01/31 02:08:55;;;;;;;8.43;7.10;;;4.00;84.30;;;;;;5135054;27;20510;-75
2021/01/31 02:11:22;;;;;;;8.00;7.20;;;4.00;84.70;;;;;;5134678;27;21051;-75
2021/01/31 02:13:52;;;;;;;8.47;6.73;;;3.90;84.80;;;;;;5134972;27;20480;-75
2021/01/31 02:16:26;;;;;;;9.37;7.43;;;3.90;84.70;;;;;;5134798;27;20568;-75
2021/01/31 02:19:00;;;;;;;8.43;7.20;;;3.90;84.70;;;;;;5135705;27;20429;-75
2021/01/31 02:21:53;;;;;;;11.10;8.80;;;3.90;84.90;;;;;;5134918;27;20540;-75
2021/01/31 02:24:55;;;;;;;8.77;7.00;;;3.90;84.90;;;;;;5134826;27;20430;-75
2021/01/31 02:28:03;;;;;;;8.37;7.47;;;3.80;85.00;;;;;;5081133;27;20468;-75
2021/01/31 02:31:06;;;;;;;8.63;6.57;;;3.80;85.10;;;;;;5134388;27;20946;-75
2021/01/31 02:33:49;;;;;;;12.33;8.23;;;3.80;85.20;;;;;;5134362;27;20898;-75
2021/01/31 02:36:28;;;;;;;8.60;7.63;;;3.80;85.40;;;;;;5134515;27;20822;-74
2021/01/31 02:39:04;;;;;;;8.50;7.23;;;3.70;85.20;;;;;;5133688;27;20436;-74
2021/01/31 02:41:34;;;;;;;8.67;7.77;;;3.70;86.00;;;;;;5134595;27;20433;-74
2021/01/31 02:44:06;;;;;;;9.50;7.77;;;3.70;85.30;;;;;;5134260;27;20447;-74
2021/01/31 02:46:36;;;;;;;8.93;7.40;;;3.70;85.30;;;;;;5135274;27;20465;-75
2021/01/31 02:49:08;;;;;;;10.43;7.73;;;3.60;85.60;;;;;;5134512;27;20482;-75
2021/01/31 02:51:42;;;;;;;10.60;8.17;;;3.60;85.50;;;;;;5134536;28;20433;-75
2021/01/31 02:54:15;;;;;;;9.07;7.10;;;3.60;85.60;;;;;;5134495;28;20787;-75
2021/01/31 02:56:46;;;;;;;7.80;7.00;;;3.60;85.70;;;;;;5134337;28;20487;-75
2021/01/31 02:59:20;;;;;;;9.23;8.33;;;3.60;85.80;;;;;;5134442;28;20483;-74
2021/01/31 03:01:51;;;;;;;8.97;7.47;;;3.60;85.90;;;;;;5134408;28;20433;-74
2021/01/31 03:04:27;;;;;;;9.80;7.63;;;3.60;85.90;;;;;;5134344;28;20410;-74
2021/01/31 03:06:56;;;;;;;7.47;6.70;;;3.60;85.70;;;;;;5133863;28;20468;-74
2021/01/31 03:09:28;;;;;;;8.93;7.90;;;3.60;85.60;;;;;;5134271;28;20486;-74
2021/01/31 03:12:01;;;;;;;8.00;7.20;;;3.60;85.30;;;;;;5133910;28;20907;-74
2021/01/31 03:14:32;;;;;;;8.00;6.73;;;3.60;85.20;;;;;;5134278;28;20422;-74
2021/01/31 03:17:02;;;;;;;9.37;7.53;;;3.60;85.00;;;;;;5134084;28;20488;-74
2021/01/31 03:19:36;;;;;;;10.60;7.70;;;3.60;84.90;;;;;;5134201;28;20445;-74
2021/01/31 03:22:07;;;;;;;7.13;6.30;;;3.50;84.70;;;;;;5134208;28;20432;-74
2021/01/31 03:24:38;;;;;;;8.53;7.10;;;3.50;84.60;;;;;;5133824;28;20925;-74
2021/01/31 03:27:08;;;;;;;10.03;7.87;;;3.50;84.70;;;;;;5134136;28;20473;-74
2021/01/31 03:29:34;;;;;;;10.23;7.20;;;3.50;85.10;;;;;;5135179;28;20772;-74
2021/01/31 03:32:05;;;;;;;7.57;6.73;;;3.40;85.20;;;;;;5134116;28;20562;-74
2021/01/31 03:34:36;;;;;;;9.40;6.90;;;3.50;85.10;;;;;;5134068;28;20425;-74
2021/01/31 03:37:06;;;;;;;9.37;7.53;;;3.40;84.90;;;;;;5134393;28;20473;-74
2021/01/31 03:39:34;;;;;;;9.30;7.90;;;3.40;85.20;;;;;;5134028;28;20420;-74
2021/01/31 03:42:00;;;;;;;9.10;7.03;;;3.40;85.60;;;;;;5133946;28;20448;-74
2021/01/31 03:44:28;;;;;;;8.03;7.07;;;3.30;85.60;;;;;;5133985;28;20441;-74
2021/01/31 03:47:01;;;;;;;11.73;7.67;;;3.30;85.70;;;;;;5133856;28;20457;-74
2021/01/31 03:49:31;;;;;;;8.20;6.53;;;3.20;85.60;;;;;;5133671;27;20910;-74
2021/01/31 03:51:58;;;;;;;8.67;6.80;;;3.20;85.60;;;;;;5137778;27;20430;-74
2021/01/31 03:54:25;;;;;;;10.50;8.37;;;3.20;85.90;;;;;;5137653;27;20538;-74
2021/01/31 03:56:54;;;;;;;9.90;8.17;;;3.20;86.10;;;;;;5137449;27;20485;-74
2021/01/31 03:59:26;;;;;;;9.57;7.60;;;3.30;85.80;;;;;;5137537;27;20498;-74
2021/01/31 04:01:55;;;;;;;8.87;7.17;;;3.30;85.80;;;;;;5137558;27;20792;-74
2021/01/31 04:04:27;;;;;;;8.97;7.67;;;3.30;85.80;;;;;;5137477;27;20440;-74
2021/01/31 04:06:58;;;;;;;9.20;7.03;;;3.30;85.80;;;;;;5136984;27;20480;-74
2021/01/31 04:09:26;;;;;;;10.10;7.27;;;3.20;85.80;;;;;;5137414;27;20429;-74
2021/01/31 04:12:02;;;;;;;9.10;8.00;;;3.20;85.80;;;;;;5137291;27;20460;-74
2021/01/31 04:14:36;;;;;;;9.53;7.80;;;3.20;86.00;;;;;;5137041;27;20453;-74
2021/01/31 04:17:02;;;;;;;11.23;7.70;;;3.10;85.90;;;;;;5137172;27;20846;-74
2021/01/31 04:19:28;;;;;;;8.40;7.50;;;3.10;86.00;;;;;;5136896;27;20466;-74
2021/01/31 04:21:54;;;;;;;9.90;8.00;;;3.20;86.00;;;;;;5137145;27;20444;-74
2021/01/31 04:24:21;;;;;;;8.70;7.40;;;3.10;85.70;;;;;;5136793;27;20953;-74
2021/01/31 04:26:48;;;;;;;8.53;7.63;;;3.10;85.80;;;;;;5137006;27;20499;-74
2021/01/31 04:29:14;;;;;;;7.80;6.87;;;3.10;86.00;;;;;;5136667;27;21007;-74
2021/01/31 04:31:40;;;;;;;9.00;7.47;;;3.10;86.20;;;;;;5136961;27;20449;-74
2021/01/31 04:34:06;;;;;;;8.97;7.50;;;3.10;86.30;;;;;;5136599;27;20444;-74
2021/01/31 04:36:33;;;;;;;9.47;7.67;;;3.10;86.20;;;;;;5136742;27;20492;-75
2021/01/31 04:38:59;;;;;;;10.00;8.23;;;3.10;86.10;;;;;;5136843;27;20449;-75
2021/01/31 04:41:32;;;;;;;8.73;7.43;;;3.10;85.90;;;;;;5136770;27;20444;-74
2021/01/31 04:43:59;;;;;;;9.10;7.40;;;3.00;85.70;;;;;;5136446;27;20891;-75
2021/01/31 04:46:38;;;;;;;9.20;8.10;;;3.00;85.60;;;;;;5136615;27;20461;-75
2021/01/31 04:49:11;;;;;;;10.17;7.80;;;3.00;85.60;;;;;;5136664;27;20514;-75
2021/01/31 04:51:57;;;;;;;8.50;7.00;;;3.00;85.30;;;;;;5136613;27;20481;-74
2021/01/31 04:54:36;;;;;;;10.50;9.07;;;3.00;85.20;;;;;;5136254;27;20490;-74
2021/01/31 04:57:11;;;;;;;10.30;8.43;;;3.00;85.00;;;;;;5137234;27;20490;-74
2021/01/31 04:59:41;;;;;;;8.10;6.90;;;2.90;84.70;;;;;;5136437;27;20480;-74
2021/01/31 05:02:11;;;;;;;9.27;7.70;;;2.90;84.90;;;;;;5135399;27;20429;-74
2021/01/31 05:04:52;;;;;;;8.83;7.40;;;2.90;85.10;;;;;;5136354;27;20444;-74
2021/01/31 05:07:22;;;;;;;10.00;7.10;;;2.80;85.10;;;;;;5136221;27;20457;-74
2021/01/31 05:09:49;;;;;;;8.53;7.40;;;2.80;85.30;;;;;;5135941;27;20424;-74
2021/01/31 05:12:21;;;;;;;10.23;8.37;;;2.80;85.30;;;;;;5136164;27;20436;-74
2021/01/31 05:15:01;;;;;;;9.77;7.63;;;2.80;85.50;;;;;;5136048;27;20478;-74
2021/01/31 05:17:28;;;;;;;7.43;6.63;;;2.80;85.70;;;;;;5135998;27;20469;-74
2021/01/31 05:19:54;;;;;;;9.90;8.27;;;2.70;85.60;;;;;;5136016;27;20446;-74
2021/01/31 05:22:27;;;;;;;9.53;7.97;;;2.70;85.80;;;;;;5135971;27;20483;-74
2021/01/31 05:24:54;;;;;;;8.27;7.20;;;2.70;85.90;;;;;;5135918;27;20480;-74
2021/01/31 05:27:32;;;;;;;9.80;8.17;;;2.70;85.80;;;;;;5135481;27;20472;-74
2021/01/31 05:29:58;;;;;;;7.50;6.77;;;2.70;85.70;;;;;;5135854;27;20429;-74
2021/01/31 05:32:25;;;;;;;11.90;7.27;;;2.70;85.60;;;;;;5135753;27;20512;-74
2021/01/31 05:34:53;;;;;;;10.10;8.10;;;2.70;85.50;;;;;;5135593;27;20459;-74
2021/01/31 05:37:21;;;;;;;9.63;8.13;;;2.70;85.60;;;;;;5135582;27;20467;-74
2021/01/31 05:39:54;;;;;;;10.63;7.53;;;2.60;85.30;;;;;;5135570;27;20444;-74
2021/01/31 05:42:24;;;;;;;8.80;7.10;;;2.60;85.30;;;;;;5135604;27;20786;-74
2021/01/31 05:45:01;;;;;;;9.17;8.00;;;2.60;85.30;;;;;;5135524;27;20452;-74
2021/01/31 05:47:34;;;;;;;9.70;8.10;;;2.60;85.30;;;;;;5135484;27;20831;-74
2021/01/31 05:50:01;;;;;;;8.97;7.57;;;2.50;85.20;;;;;;5135399;27;20436;-74
2021/01/31 05:52:35;;;;;;;9.57;7.30;;;2.50;86.00;;;;;;5135023;27;20437;-74
2021/01/31 05:55:19;;;;;;;9.13;7.27;;;2.50;85.40;;;;;;5135268;27;20448;-74
2021/01/31 05:57:46;;;;;;;9.10;7.83;;;2.50;85.50;;;;;;5135009;27;20479;-74
2021/01/31 06:00:20;;;;;;;10.63;7.63;;;2.50;85.40;;;;;;5134881;27;20934;-74
2021/01/31 06:03:01;;;;;;;9.30;7.90;;;2.40;85.50;;;;;;5134879;27;20906;-74
2021/01/31 06:05:29;;;;;;;11.00;8.10;;;2.40;85.60;;;;;;5134864;27;20468;-74
2021/01/31 06:08:02;;;;;;;9.50;8.23;;;2.40;85.70;;;;;;5134819;27;20443;-74
2021/01/31 06:10:31;;;;;;;10.17;8.33;;;2.40;85.80;;;;;;5135129;27;20425;-74
2021/01/31 06:13:12;;;;;;;9.43;7.97;;;2.40;85.80;;;;;;5134809;27;20451;-74
2021/01/31 06:15:42;;;;;;;9.90;7.70;;;2.30;85.70;;;;;;5134571;27;20483;-74
2021/01/31 06:18:22;;;;;;;8.57;6.70;;;2.30;85.60;;;;;;5134664;27;20437;-74
2021/01/31 06:20:49;;;;;;;9.17;7.80;;;2.30;85.60;;;;;;5134934;27;20427;-74
2021/01/31 06:23:30;;;;;;;9.17;7.73;;;2.30;85.50;;;;;;5134552;27;20939;-74
2021/01/31 06:25:56;;;;;;;9.70;7.47;;;2.30;85.50;;;;;;5134774;27;20486;-74
2021/01/31 06:28:28;;;;;;;9.17;8.20;;;2.30;85.40;;;;;;5134765;27;20445;-74
2021/01/31 06:31:07;;;;;;;10.93;8.93;;;2.20;85.20;;;;;;5134693;27;20436;-74
2021/01/31 06:33:34;;;;;;;9.10;7.23;;;2.20;85.40;;;;;;5134405;27;20429;-74
2021/01/31 06:36:13;;;;;;;12.17;8.80;;;2.20;85.50;;;;;;5134204;27;20480;-74
2021/01/31 06:38:51;;;;;;;10.30;7.70;;;2.20;85.60;;;;;;5134679;27;20454;-74
2021/01/31 06:41:31;;;;;;;9.20;7.23;;;2.20;85.70;;;;;;5134659;27;20433;-74
2021/01/31 06:44:05;;;;;;;9.17;7.40;;;2.20;85.50;;;;;;5134589;27;20545;-74
2021/01/31 06:46:45;;;;;;;11.20;8.10;;;2.20;85.40;;;;;;5134467;27;20462;-74
2021/01/31 06:49:30;;;;;;;10.50;8.13;;;2.10;85.30;;;;;;5134565;27;20425;-75
2021/01/31 06:52:08;;;;;;;8.50;7.27;;;2.10;85.60;;;;;;5134519;27;20492;-74
2021/01/31 06:55:25;;;;;;;9.50;7.70;;;2.10;85.60;;;;;;5134515;28;20431;-74
2021/01/31 06:58:19;;;;;;;9.33;7.93;;;2.10;85.60;;;;;;5092357;28;20448;-74
2021/01/31 07:01:03;;;;;;;11.13;8.43;;;2.00;85.70;;;;;;5134430;28;20415;-74
2021/01/31 07:03:58;;;;;;;9.40;8.17;;;2.00;85.90;;;;;;5134401;28;20459;-74
2021/01/31 07:06:53;;;;;;;10.80;7.90;;;2.00;86.00;;;;;;5133906;28;20466;-74
2021/01/31 07:09:41;;;;;;;9.47;7.53;;;2.00;86.20;;;;;;5134356;28;20438;-74
2021/01/31 07:12:12;;;;;;;10.97;8.37;;;2.00;86.10;;;;;;5134400;28;20423;-73
2021/01/31 07:14:47;;;;;;;13.20;8.73;;;2.00;86.30;;;;;;5134358;28;20436;-73
2021/01/31 07:17:23;;;;;;;12.80;8.40;;;2.00;86.50;;;;;;5134143;28;20531;-73
2021/01/31 07:19:55;;;;;;;10.90;9.20;;;2.00;86.30;;;;;;5134283;28;20434;-73
2021/01/31 07:22:26;;;;;;;9.83;8.00;;;2.00;86.20;;;;;;5134249;28;20467;-73
2021/01/31 07:24:58;;;;;;;11.10;8.20;;;2.00;86.20;;;;;;5134803;27;20460;-73
2021/01/31 07:27:29;;;;;;;11.20;8.17;;;2.00;86.20;;;;;;5137922;27;20875;-73
2021/01/31 07:30:08;;;;;;;10.60;7.47;;;2.00;86.10;;;;;;5137889;27;20801;-73
2021/01/31 07:33:05;;;;;;;9.90;8.20;;;2.00;86.80;;;;;;5138165;27;20425;-73
2021/01/31 07:35:38;;;;;;;9.60;8.10;;;2.00;86.10;;;;;;5129121;27;20484;-73
2021/01/31 07:38:13;;;;;;;11.40;8.77;;;2.00;86.20;;;;;;5138209;27;20418;-73
2021/01/31 07:40:40;;;;;;;10.37;7.80;;;2.00;86.30;;;;;;5138138;27;20425;-73
2021/01/31 07:43:08;;;;;;;12.70;9.23;;;2.00;86.30;;;;;;5138036;27;20790;-73
2021/01/31 07:45:34;;;;;;;11.73;9.10;;;2.00;86.40;;;;;;5137555;27;20828;-73
2021/01/31 07:48:34;;;;;;;11.10;8.53;;;2.00;86.60;;;;;;5137475;27;20841;-73
2021/01/31 07:51:03;;;;;;;13.77;8.57;;;2.00;86.60;;;;;;5137750;27;20433;-74
2021/01/31 07:53:33;;;;;;;12.03;9.10;;;2.00;86.60;;;;;;5137384;27;20933;-74
2021/01/31 07:56:24;;;;;;;13.20;8.97;;;2.00;86.80;;;;;;5137529;27;20504;-73
2021/01/31 07:58:50;;;;;;;13.30;8.90;;;2.00;86.80;;;;;;5137634;27;20427;-73
2021/01/31 08:01:45;;;;;;;13.03;9.70;;;2.00;86.80;;;;;;5137687;27;20805;-73
2021/01/31 08:04:26;;;;;;;12.47;9.60;;;2.10;87.00;;;;;;5137584;27;20463;-74
2021/01/31 08:06:54;;;;;;;15.17;9.90;;;2.10;86.90;;;;;;5137103;27;20524;-75
2021/01/31 08:09:55;;;;;;;13.90;9.53;;;2.10;86.90;;;;;;5137174;27;20948;-74
2021/01/31 08:12:58;;;;;;;13.33;9.57;;;2.10;87.10;;;;;;5137367;27;20414;-73
2021/01/31 08:15:38;;;;;;;14.70;10.10;;;2.10;87.20;;;;;;5137187;27;20475;-74
2021/01/31 08:18:17;;;;;;;12.80;9.67;;;2.10;87.40;;;;;;5137262;27;20447;-74
2021/01/31 08:20:47;;;;;;;13.60;10.23;;;2.10;87.40;;;;;;5137235;27;20424;-74
2021/01/31 08:23:44;;;;;;;16.00;11.47;;;2.20;87.70;;;;;;5137106;27;20441;-74
2021/01/31 08:26:11;;;;;;;14.63;10.43;;;2.20;87.70;;;;;;5136990;27;20467;-74
2021/01/31 08:28:48;;;;;;;13.47;9.43;;;2.20;87.60;;;;;;5137027;27;20451;-74
2021/01/31 08:31:16;;;;;;;15.20;9.97;;;2.20;87.90;;;;;;5137528;27;20476;-74
2021/01/31 08:33:43;;;;;;;16.97;10.67;;;2.20;88.00;;;;;;5137707;27;20426;-73
2021/01/31 08:36:22;;;;;;;15.13;11.17;;;2.30;88.10;;;;;;5137558;27;20532;-74
2021/01/31 08:38:51;;;;;;;17.40;10.90;;;2.20;88.00;;;;;;5137141;27;20425;-74
2021/01/31 08:41:34;;;;;;;18.10;11.57;;;2.30;88.20;;;;;;5137075;27;20448;-74
2021/01/31 08:44:40;;;;;;;13.30;9.70;;;2.40;88.10;;;;;;5137427;27;20456;-74
2021/01/31 08:47:07;;;;;;;13.90;10.97;;;2.40;87.80;;;;;;5136967;27;20461;-74
2021/01/31 08:49:34;;;;;;;14.67;10.70;;;2.40;87.50;;;;;;5136856;27;20445;-73
2021/01/31 08:52:03;;;;;;;16.57;11.20;;;2.40;87.70;;;;;;5136914;27;20818;-73
2021/01/31 08:54:29;;;;;;;14.03;9.90;;;2.50;87.70;;;;;;5136906;27;20442;-74
2021/01/31 08:56:57;;;;;;;16.53;11.20;;;2.50;87.60;;;;;;5137133;27;20498;-73
2021/01/31 08:59:26;;;;;;;14.27;11.17;;;2.50;87.40;;;;;;5136584;27;20442;-73
2021/01/31 09:02:00;;;;;;;13.93;9.73;;;2.50;87.30;;;;;;5136521;27;20432;-73
2021/01/31 09:04:27;;;;;;;16.33;11.33;;;2.60;87.10;;;;;;5137460;27;20428;-73
2021/01/31 09:06:58;;;;;;;14.00;10.17;;;2.70;87.00;;;;;;5135854;27;20473;-73
2021/01/31 09:09:28;;;;;;;17.20;10.70;;;2.70;86.70;;;;;;5136329;27;20429;-74
2021/01/31 09:11:57;;;;;;;12.37;9.13;;;2.80;86.40;;;;;;5136140;27;20490;-74
2021/01/31 09:14:25;;;;;;;15.20;10.37;;;2.90;86.20;;;;;;5136146;27;20447;-74
2021/01/31 09:17:01;;;;;;;14.73;11.43;;;2.90;86.10;;;;;;5135914;27;20480;-74
2021/01/31 09:19:28;;;;;;;15.03;10.30;;;3.00;86.10;;;;;;5136088;27;20436;-74
2021/01/31 09:21:57;;;;;;;17.00;11.50;;;3.10;85.90;;;;;;5135968;27;20448;-74
2021/01/31 09:24:27;;;;;;;14.53;10.27;;;3.20;85.60;;;;;;5135969;27;20441;-74
2021/01/31 09:26:56;;;;;;;13.33;10.37;;;3.30;84.90;;;;;;5135822;27;20510;-74
2021/01/31 09:29:24;;;;;;;14.67;10.57;;;3.30;84.50;;;;;;5135504;27;20941;-74
2021/01/31 09:31:55;;;;;;;14.87;11.13;;;3.40;84.10;;;;;;5135525;27;20449;-74
2021/01/31 09:34:24;;;;;;;16.90;11.40;;;3.40;84.10;;;;;;5135884;27;20434;-74
2021/01/31 09:37:04;;;;;;;12.63;9.70;;;3.50;83.90;;;;;;5135240;27;20999;-74
2021/01/31 09:39:33;;;;;;;13.00;9.97;;;3.50;83.40;;;;;;5135681;27;20441;-74
2021/01/31 09:42:01;;;;;;;13.60;11.10;;;3.60;83.20;;;;;;5135323;27;20908;-74
2021/01/31 09:44:28;;;;;;;14.47;10.60;;;3.60;82.70;;;;;;5135263;27;20437;-74
2021/01/31 09:46:54;;;;;;;13.87;10.20;;;3.70;82.50;;;;;;5135468;27;20461;-74
2021/01/31 09:49:25;;;;;;;13.43;9.77;;;3.70;82.70;;;;;;5134627;27;20926;-74
2021/01/31 09:51:51;;;;;;;14.07;9.80;;;3.80;82.10;;;;;;5135495;27;20763;-74
2021/01/31 09:54:20;;;;;;;12.10;9.80;;;3.80;81.60;;;;;;5135391;27;20442;-74
2021/01/31 09:56:49;;;;;;;14.27;10.80;;;3.80;82.10;;;;;;5135195;27;20485;-74
2021/01/31 09:59:24;;;;;;;13.50;9.80;;;3.80;81.40;;;;;;5135235;27;20456;-74
2021/01/31 10:01:53;;;;;;;14.23;10.30;;;3.90;81.70;;;;;;5135276;27;20475;-73
2021/01/31 10:04:23;;;;;;;13.03;9.93;;;4.00;81.20;;;;;;5135176;27;20521;-74
2021/01/31 10:06:52;;;;;;;14.00;10.17;;;4.00;80.00;;;;;;5134626;27;20506;-74
2021/01/31 10:09:29;;;;;;;12.27;9.93;;;4.10;81.00;;;;;;5135015;27;20445;-74
2021/01/31 10:12:15;;;;;;;12.10;9.13;;;4.10;79.90;;;;;;5135050;27;20425;-74
2021/01/31 10:14:43;;;;;;;13.40;9.40;;;4.20;79.10;;;;;;5134988;27;20438;-74
2021/01/31 10:17:14;;;;;;;11.33;9.80;;;4.20;79.00;;;;;;5134836;27;20477;-74
2021/01/31 10:19:40;;;;;;;13.30;9.90;;;4.30;79.20;;;;;;5134499;27;20822;-74
2021/01/31 10:22:14;;;;;;;13.90;9.90;;;4.30;78.40;;;;;;5134576;27;20929;-74
2021/01/31 10:24:46;;;;;;;13.90;10.80;;;4.40;78.50;;;;;;5135079;27;20437;-73
2021/01/31 10:27:21;;;;;;;14.60;11.10;;;4.40;78.90;;;;;;5134367;27;20963;-73
2021/01/31 10:29:49;;;;;;;14.47;10.20;;;4.50;78.80;;;;;;5134782;27;20449;-73
2021/01/31 10:32:28;;;;;;;15.27;9.97;;;4.70;78.60;;;;;;5134930;27;20827;-73
2021/01/31 10:34:56;;;;;;;12.17;9.30;;;4.80;78.30;;;;;;5134645;27;20421;-73
2021/01/31 10:37:33;;;;;;;14.07;9.70;;;4.90;78.10;;;;;;5134507;27;20478;-73
2021/01/31 10:39:59;;;;;;;14.17;10.50;;;5.00;77.70;;;;;;5134357;27;20430;-73
2021/01/31 10:42:26;;;;;;;12.73;9.80;;;5.10;77.60;;;;;;5134610;27;20819;-73
2021/01/31 10:44:52;;;;;;;12.47;9.73;;;5.30;77.20;;;;;;5134658;27;20434;-73
2021/01/31 10:47:19;;;;;;;13.60;9.77;;;5.40;77.00;;;;;;5135111;27;20464;-73
2021/01/31 10:49:45;;;;;;;11.73;8.83;;;5.50;76.80;;;;;;5134587;27;20422;-73
2021/01/31 10:52:12;;;;;;;13.00;10.07;;;5.60;75.40;;;;;;5134241;27;20950;-73
2021/01/31 10:54:38;;;;;;;13.50;9.87;;;5.70;75.00;;;;;;5134380;28;20453;-73
2021/01/31 10:57:04;;;;;;;12.20;9.90;;;5.90;74.30;;;;;;5134348;28;20477;-73
2021/01/31 10:59:31;;;;;;;11.23;8.47;;;6.10;74.10;;;;;;5134391;27;20421;-73
2021/01/31 11:01:58;;;;;;;11.77;8.67;;;6.20;73.50;;;;;;5138892;27;20438;-73
2021/01/31 11:04:24;;;;;;;13.00;9.97;;;6.30;72.70;;;;;;5138875;27;20450;-73
2021/01/31 11:06:50;;;;;;;12.87;9.20;;;6.50;72.00;;;;;;5138443;27;20466;-73
2021/01/31 11:09:17;;;;;;;9.13;7.73;;;6.60;71.70;;;;;;5138459;27;20907;-73
2021/01/31 11:11:43;;;;;;;12.57;8.43;;;6.70;71.40;;;;;;5138708;27;20520;-73
2021/01/31 11:14:10;;;;;;;11.43;9.20;;;6.80;70.80;;;;;;5138636;27;20437;-73
2021/01/31 11:16:37;;;;;;;10.10;9.10;;;6.80;68.50;;;;;;5138062;27;21010;-73
2021/01/31 11:19:03;;;;;;;9.57;8.60;;;6.90;68.40;;;;;;5138540;27;20429;-73
2021/01/31 11:21:29;;;;;;;12.03;8.80;;;6.90;68.50;;;;;;5138509;27;20854;-73
2021/01/31 11:23:56;;;;;;;10.87;8.70;;;7.10;68.60;;;;;;5138419;27;20445;-73
2021/01/31 11:26:22;;;;;;;8.80;7.87;;;7.20;68.80;;;;;;5138234;27;20823;-73
2021/01/31 11:28:49;;;;;;;7.60;6.80;;;7.50;68.50;;;;;;5138296;27;20448;-73
2021/01/31 11:31:15;;;;;;;8.40;7.53;;;7.80;64.40;;;;;;5138120;27;20478;-73
2021/01/31 11:33:42;;;;;;;8.43;7.40;;;8.20;63.90;;;;;;5137970;27;20433;-73
2021/01/31 11:36:10;;;;;;;9.97;8.20;;;8.60;61.00;;;;;;5137799;27;20481;-73
2021/01/31 11:38:36;;;;;;;9.53;7.60;;;8.90;59.10;;;;;;5138088;27;20453;-73
2021/01/31 11:41:03;;;;;;;7.23;6.53;;;9.40;59.30;;;;;;5137651;27;20502;-73
2021/01/31 11:43:29;;;;;;;9.03;6.80;;;9.80;58.40;;;;;;5137979;27;20464;-73
2021/01/31 11:45:56;;;;;;;7.27;6.57;;;9.90;57.30;;;;;;5137931;27;20481;-73
2021/01/31 11:48:22;;;;;;;7.30;6.63;;;9.90;57.30;;;;;;5137884;27;20483;-73
2021/01/31 11:50:49;;;;;;;8.03;7.23;;;9.80;57.60;;;;;;5137512;27;20947;-73
2021/01/31 11:53:16;;;;;;;6.40;5.80;;;10.10;57.20;;;;;;5137810;27;20453;-73
2021/01/31 11:55:42;;;;;;;5.70;5.20;;;10.10;54.80;;;;;;5137530;27;20457;-74
2021/01/31 11:58:10;;;;;;;5.90;5.30;;;9.90;55.40;;;;;;5137312;27;20499;-73
2021/01/31 12:00:36;;;;;;;6.03;5.43;;;9.80;56.20;;;;;;5137682;27;20426;-73
2021/01/31 12:03:04;;;;;;;6.03;5.13;;;9.60;55.40;;;;;;5137628;27;20437;-73
2021/01/31 12:05:30;;;;;;;4.93;4.50;;;9.50;57.10;;;;;;5137388;27;20469;-73
2021/01/31 12:07:57;;;;;;;5.13;4.50;;;9.50;57.50;;;;;;5137437;27;20539;-73
2021/01/31 12:10:25;;;;;;;5.30;4.60;;;9.50;56.80;;;;;;5137291;27;20442;-73
2021/01/31 12:12:51;;;;;;;6.10;5.50;;;9.60;57.90;;;;;;5137260;27;20441;-73
2021/01/31 12:15:18;;;;;;;5.60;5.10;;;10.00;57.00;;;;;;5136946;27;20928;-73
2021/01/31 12:17:44;;;;;;;6.20;5.60;;;10.30;56.00;;;;;;5136956;27;20892;-73
2021/01/31 12:20:13;;;;;;;5.03;4.53;;;10.40;55.80;;;;;;5136939;27;20418;-73
2021/01/31 12:22:40;;;;;;;5.70;5.13;;;10.40;55.60;;;;;;5137197;27;20418;-72
2021/01/31 12:25:09;;;;;;;5.30;4.80;;;10.40;55.70;;;;;;5137221;27;20426;-72
2021/01/31 12:27:36;;;;;;;5.40;4.90;;;10.40;55.90;;;;;;5137139;27;20442;-73
2021/01/31 12:30:03;;;;;;;5.10;4.50;;;10.40;55.80;;;;;;5137070;27;20493;-73
2021/01/31 12:32:29;;;;;;;5.07;4.63;;;10.60;55.40;;;;;;5137008;27;20456;-73
2021/01/31 12:34:55;;;;;;;4.73;4.33;;;10.80;55.00;;;;;;5136970;27;20442;-74
2021/01/31 12:37:22;;;;;;;4.90;4.43;;;10.70;54.20;;;;;;5136511;27;20889;-74
2021/01/31 12:39:48;;;;;;;6.20;5.10;;;10.60;54.60;;;;;;5136894;27;20465;-74
2021/01/31 12:42:15;;;;;;;6.10;5.23;;;10.40;54.90;;;;;;5136858;27;20479;-74
2021/01/31 12:44:42;;;;;;;5.07;4.57;;;10.30;55.50;;;;;;5136475;27;20445;-75
2021/01/31 12:47:10;;;;;;;6.07;5.33;;;10.20;55.90;;;;;;5136757;27;20510;-74
2021/01/31 12:49:36;;;;;;;5.83;5.20;;;10.10;56.30;;;;;;5136781;27;20445;-74
2021/01/31 12:52:02;;;;;;;5.37;4.87;;;10.00;56.00;;;;;;5136912;27;20434;-74
2021/01/31 12:54:28;;;;;;;5.30;4.80;;;10.00;56.00;;;;;;5136782;27;20426;-73
2021/01/31 12:56:55;;;;;;;5.73;5.20;;;10.10;56.60;;;;;;5136435;27;20478;-73
2021/01/31 12:59:22;;;;;;;6.30;5.60;;;10.30;55.70;;;;;;5136241;27;20904;-73
2021/01/31 13:01:48;;;;;;;6.47;5.87;;;10.60;55.50;;;;;;5136527;27;20426;-73
2021/01/31 13:04:14;;;;;;;6.53;5.80;;;11.00;54.10;;;;;;5136056;27;20446;-73
2021/01/31 13:06:40;;;;;;;5.37;4.87;;;11.30;53.60;;;;;;5136019;27;20493;-73
2021/01/31 13:09:06;;;;;;;7.57;5.50;;;11.80;52.00;;;;;;5136295;27;20438;-74
2021/01/31 13:11:33;;;;;;;5.03;4.50;;;12.50;51.60;;;;;;5135985;27;20818;-74